^^
Meteo Knjazevac Station Historical Data
Daily Summary for February 19, 2021 Units:  English    Metric   Both
Daily Weekly Monthly Yearly Custom
  High: Low: Average:
Temperature: 84.7 °F 64.2 °F 71.3 °F
Dew Point: 75.5 °F 63.9 °F 68.4 °F
Humidity: 99% 72% 91%
Wind Speed: 10mph 0mph 2mph
Wind Gust: 16mph - -
Wind- - SE
Pressure: 29.92 in 29.86 in -
Precipitation: 0.02 in    
Historical Graphs
 
 
Tabular Data for February 19, 2021
Time Temperature Dew Point Pressure Wind Wind Speed Wind Gust Humidity Rainfall Rate (Hourly) solar Conditions
00:00 65.5 °F 65.2 °F 29.89 in NE 3 mph 5 mph 99% 0.00 in 0 W/m2
00:10 65.5 °F 65.2 °F 29.90 in NE 2 mph 5 mph 99% 0.00 in 0 W/m2
00:20 65.5 °F 65.2 °F 29.89 in NE 2 mph 2 mph 99% 0.00 in 0 W/m2
00:30 65.5 °F 65.2 °F 29.89 in NE 2 mph 2 mph 99% 0.00 in 0 W/m2
00:40 65.5 °F 65.2 °F 29.89 in NE 2 mph 2 mph 99% 0.00 in 0 W/m2
00:50 65.5 °F 65.2 °F 29.90 in NE 1 mph 2 mph 99% 0.00 in 0 W/m2
01:00 65.3 °F 65 °F 29.88 in NE 2 mph 2 mph 99% 0.00 in 0 W/m2
01:10 65.3 °F 65 °F 29.89 in NE 1 mph 2 mph 99% 0.00 in 0 W/m2
01:20 65.3 °F 65 °F 29.89 in NE 1 mph 2 mph 99% 0.00 in 0 W/m2
01:30 65.3 °F 65 °F 29.89 in NE 1 mph 1 mph 99% 0.00 in 0 W/m2
01:40 65.3 °F 65 °F 29.89 in NE 1 mph 1 mph 99% 0.00 in 0 W/m2
01:50 65.1 °F 64.8 °F 29.89 in NE 1 mph 1 mph 99% 0.00 in 0 W/m2
02:00 65.1 °F 64.8 °F 29.89 in NE 1 mph 1 mph 99% 0.00 in 0 W/m2
02:10 65.1 °F 64.8 °F 29.89 in NE 1 mph 1 mph 99% 0.00 in 0 W/m2
02:20 65.1 °F 64.8 °F 29.89 in NE 1 mph 1 mph 99% 0.00 in 0 W/m2
02:30 65.1 °F 64.8 °F 29.89 in NE 1 mph 1 mph 99% 0.00 in 0 W/m2
02:40 65.1 °F 64.8 °F 29.89 in NE 1 mph 1 mph 99% 0.00 in 0 W/m2
02:50 65.1 °F 64.8 °F 29.90 in NE 1 mph 1 mph 99% 0.00 in 0 W/m2
03:00 65.1 °F 64.8 °F 29.90 in NE 1 mph 1 mph 99% 0.00 in 0 W/m2
03:10 65.3 °F 65 °F 29.89 in NE 1 mph 1 mph 99% 0.00 in 0 W/m2
03:20 65.3 °F 65 °F 29.89 in NE 1 mph 1 mph 99% 0.00 in 0 W/m2
03:30 65.3 °F 65 °F 29.89 in NE 1 mph 1 mph 99% 0.00 in 0 W/m2
03:40 65.3 °F 65 °F 29.89 in NE 1 mph 1 mph 99% 0.00 in 0 W/m2
03:50 65.3 °F 65 °F 29.89 in NNE 1 mph 1 mph 99% 0.00 in 0 W/m2
04:00 65.3 °F 65 °F 29.89 in NNE 1 mph 1 mph 99% 0.00 in 0 W/m2
04:10 65.3 °F 65 °F 29.89 in NW 1 mph 1 mph 99% 0.00 in 0 W/m2
04:20 65.1 °F 64.8 °F 29.90 in Calm   3 mph 99% 0.00 in 0 W/m2
04:30 65.1 °F 64.8 °F 29.90 in Calm   5 mph 99% 0.00 in 0 W/m2
04:40 64.9 °F 64.7 °F 29.90 in NW 1 mph 1 mph 99% 0.00 in 0 W/m2
04:50 64.9 °F 64.7 °F 29.90 in NW 1 mph 1 mph 99% 0.00 in 0 W/m2
05:00 64.9 °F 64.7 °F 29.90 in NW 1 mph 1 mph 99% 0.00 in 0 W/m2
05:10 64.8 °F 64.5 °F 29.91 in NNW 1 mph 1 mph 99% 0.00 in 2 W/m2
05:20 64.8 °F 64.5 °F 29.91 in North 1 mph 3 mph 99% 0.00 in 7 W/m2
05:30 64.7 °F 64.4 °F 29.90 in North 2 mph 4 mph 99% 0.00 in 14 W/m2
05:40 64.6 °F 64.3 °F 29.90 in North 1 mph 1 mph 99% 0.00 in 30 W/m2
05:50 64.4 °F 64.1 °F 29.91 in North 1 mph 1 mph 99% 0.00 in 47 W/m2
06:00 64.2 °F 63.9 °F 29.91 in North 1 mph 1 mph 99% 0.00 in 71 W/m2
06:10 64.4 °F 64.1 °F 29.91 in North 1 mph 1 mph 99% 0.00 in 83 W/m2
06:20 64.4 °F 64.1 °F 29.91 in NNW 1 mph 1 mph 99% 0.00 in 77 W/m2
06:30 64.8 °F 64.5 °F 29.91 in NNW 1 mph 1 mph 99% 0.00 in 124 W/m2
06:40 65.1 °F 64.8 °F 29.91 in NNW 1 mph 1 mph 99% 0.00 in 155 W/m2
06:50 65.3 °F 65.1 °F 29.91 in NNW 1 mph 1 mph 99% 0.00 in 192 W/m2
07:00 65.7 °F 65.4 °F 29.92 in Calm   1 mph 99% 0.00 in 186 W/m2
07:10 65.8 °F 65.6 °F 29.91 in Calm   1 mph 99% 0.00 in 173 W/m2
07:20 66 °F 65.7 °F 29.91 in Calm   1 mph 99% 0.00 in 173 W/m2
07:30 66 °F 65.7 °F 29.91 in Calm     99% 0.00 in 208 W/m2
07:40 66.2 °F 65.9 °F 29.91 in Calm     99% 0.00 in 344 W/m2
07:50 66.2 °F 65.9 °F 29.91 in SW 5 mph 6 mph 99% 0.00 in 357 W/m2
08:00 66.4 °F 66.1 °F 29.91 in SSW 6 mph 8 mph 99% 0.00 in 391 W/m2
08:10 66.7 °F 66.5 °F 29.91 in SSW 8 mph 10 mph 99% 0.00 in 423 W/m2
08:20 67.1 °F 66.8 °F 29.91 in SSE 2 mph 8 mph 99% 0.00 in 463 W/m2
08:30 67.3 °F 67 °F 29.91 in ENE 1 mph 7 mph 99% 0.00 in 509 W/m2
08:40 67.7 °F 67.4 °F 29.91 in NE 1 mph 1 mph 99% 0.00 in 377 W/m2
08:50 68 °F 67.7 °F 29.91 in NE 1 mph 1 mph 99% 0.00 in 575 W/m2
09:00 68.6 °F 68.3 °F 29.91 in NNE 1 mph 1 mph 99% 0.00 in 603 W/m2
09:10 69.8 °F 69.6 °F 29.91 in NNW 1 mph 6 mph 99% 0.00 in 648 W/m2
09:20 70.9 °F 69.4 °F 29.91 in SSW 9 mph 10 mph 95% 0.00 in 530 W/m2
09:30 71.7 °F 69.8 °F 29.91 in SSE 1 mph 10 mph 94% 0.00 in 713 W/m2
09:40 72.5 °F 70.7 °F 29.91 in NE 1 mph 2 mph 94% 0.00 in 737 W/m2
09:50 73.3 °F 70.5 °F 29.91 in NE 1 mph 2 mph 91% 0.00 in 681 W/m2
10:00 73.8 °F 70.7 °F 29.91 in NE 1 mph 4 mph 90% 0.00 in 751 W/m2
10:10 74.7 °F 71.5 °F 29.91 in Calm   5 mph 90% 0.00 in 803 W/m2
10:20 75.6 °F 71.1 °F 29.91 in WNW 1 mph 3 mph 86% 0.00 in 823 W/m2
10:30 76.1 °F 71.6 °F 29.91 in West 1 mph 5 mph 86% 0.00 in 842 W/m2
10:40 77.1 °F 72.5 °F 29.91 in West 1 mph 7 mph 86% 0.00 in 859 W/m2
10:50 77.7 °F 72.8 °F 29.91 in NW 1 mph 6 mph 85% 0.00 in 277 W/m2
11:00 78.1 °F 71.8 °F 29.91 in North 1 mph 7 mph 81% 0.00 in 802 W/m2
11:10 78.4 °F 71.8 °F 29.91 in North 2 mph 5 mph 80% 0.00 in 848 W/m2
11:30 79.5 °F 72.1 °F 29.90 in North 3 mph 7 mph 78% 0.00 in 592 W/m2
11:40 79.9 °F 72.8 °F 29.90 in NNE 2 mph 8 mph 79% 0.00 in 615 W/m2
11:50 80.6 °F 73.5 °F 29.90 in North 2 mph 7 mph 79% 0.00 in 942 W/m2
12:00 81.1 °F 74 °F 29.90 in North 3 mph 11 mph 79% 0.00 in 948 W/m2
12:10 81.9 °F 73.9 °F 29.89 in NE 3 mph 8 mph 77% 0.00 in 953 W/m2
12:20 82.1 °F 74.6 °F 29.89 in North 5 mph 9 mph 78% 0.00 in 788 W/m2
12:30 82.4 °F 73.7 °F 29.89 in North 5 mph 10 mph 75% 0.00 in 958 W/m2
12:40 82.4 °F 74.5 °F 29.89 in NNE 2 mph 9 mph 77% 0.00 in 958 W/m2
12:50 82.9 °F 75.4 °F 29.88 in NNE 1 mph 8 mph 78% 0.00 in 956 W/m2
13:00 83.3 °F 74.5 °F 29.88 in North 2 mph 8 mph 75% 0.00 in 680 W/m2
13:10 83.8 °F 74.3 °F 29.88 in North 5 mph 9 mph 73% 0.00 in 456 W/m2
13:20 84 °F 74 °F 29.87 in North 3 mph 8 mph 72% 0.00 in 942 W/m2
13:30 84.4 °F 74.4 °F 29.87 in NNE 2 mph 8 mph 72% 0.00 in 935 W/m2
13:40 84.7 °F 75.1 °F 29.87 in NNE 3 mph 8 mph 73% 0.00 in 371 W/m2
13:50 84.7 °F 75.5 °F 29.86 in North 1 mph 8 mph 74% 0.00 in 715 W/m2
14:00 84.7 °F 75.1 °F 29.86 in NNW 2 mph 7 mph 73% 0.00 in 584 W/m2
14:10 84.4 °F 74.8 °F 29.86 in North 1 mph 8 mph 73% 0.00 in 367 W/m2
14:20 84 °F 74 °F 29.87 in North 1 mph 9 mph 72% 0.00 in 316 W/m2
14:30 83.6 °F 74 °F 29.86 in North 3 mph 6 mph 73% 0.00 in 226 W/m2
14:40 83.1 °F 73.6 °F 29.86 in NNW 1 mph 6 mph 73% 0.00 in 147 W/m2
14:50 82.6 °F 73.4 °F 29.86 in West 2 mph 4 mph 74% 0.01 in 125 W/m2
15:00 81.7 °F 74.1 °F 29.86 in SW 7 mph 13 mph 78% 0.00 in 45 W/m2
15:10 79.8 °F 73.1 °F 29.87 in SW 7 mph 14 mph 80% 0.00 in 80 W/m2
15:20 78.6 °F 73 °F 29.88 in SW 10 mph 16 mph 83% 0.00 in 93 W/m2
15:30 77.5 °F 72.3 °F 29.88 in WSW 10 mph 15 mph 84% 0.00 in 123 W/m2
15:40 75.7 °F 68.3 °F 29.88 in WSW 8 mph 14 mph 78% 0.00 in 195 W/m2
Knjazevac, Serbia
Compliments of Weather Underground - 2 mb